Skip Navigation LinksHome page > Weather > Current weather Skip Navigation Links

Current Weather

Metropolitan Oakland Intl, Oakland, Calif.

For information only: do not use for flight planning or navigation.
Latest weather
Observation time Sunday, May 26, 2019 8:53 AM PDT
Local time Sunday, May 26, 2019 9:03 AM PDT
Flight conditions Visual Meteorological Conditions
Winds
Wind direction West-Northwest (290°)
Wind speed 21 mph
Peak wind speed 37 mph, 7:54 AM
Peak wind direction West (280°)
Visibility 10 mi.
Sky condition
Ceiling 4,300 ft. broken clouds
Cloud layer scattered clouds 2,600 ft.
Cloud layer broken clouds 4,300 ft.
Cloud layer broken clouds 5,500 ft.
Temperature 56°F
Dewpoint 44°F
Altimeter 29.84 in.Hg
Derived measurements
Relative humidity 64%
Density altitude 40 ft.
Sea-level pressure 29.84 in.Hg
Remarks
Automated weather observing station with precipitation discriminator.
METAR KOAK 261553Z 29018KT 10SM SCT026 BKN043 BKN055 13/07 A2984 RMK AO2 PK WND 28032/1454 SLP105 T01330067

Settings

Location code

InnerDrive.Weather 4.0.6770.0 Release CLR 4.0.30319.42000
Copyright ©2018 Inner Drive Technology. All rights reserved. Portions Copyright ©1986-2018 David Braverman.

Find weather

Site navigation


Skip Navigation Links

Place info

Page info

PayPal - The safer, easier way to pay online!

Return home.

Copyright ©2019 Inner Drive Technology. Purveyors of fine, hand-crafted computer software. Page printed 2019-05-26T16:03:26 UTC.